createdAt,value
2022-10-29T00:00:55.589Z,327.23
2022-10-29T00:03:23.076Z,321.88
2022-10-29T00:06:01.294Z,324.85
2022-10-29T00:08:29.178Z,319.58
2022-10-29T00:10:56.592Z,314.42
2022-10-29T00:13:23.362Z,316.27
2022-10-29T00:15:49.902Z,316.52
2022-10-29T00:18:16.445Z,334.20
2022-10-29T00:20:43.022Z,337.95
2022-10-29T00:23:09.769Z,313.27
2022-10-29T00:25:36.369Z,311.35
2022-10-29T00:28:02.944Z,334.35
2022-10-29T00:30:29.508Z,331.42
2022-10-29T00:32:56.329Z,345.00
2022-10-29T00:35:23.188Z,320.00
2022-10-29T00:37:49.693Z,323.40
2022-10-29T00:40:16.376Z,342.88
2022-10-29T00:42:42.925Z,320.52
2022-10-29T00:45:19.380Z,336.20
2022-10-29T00:47:50.908Z,325.03
2022-10-29T00:50:20.643Z,327.73
2022-10-29T00:52:49.446Z,335.17
2022-10-29T00:55:17.319Z,330.73
2022-10-29T00:57:50.122Z,325.73
2022-10-29T01:00:18.794Z,316.58
2022-10-29T01:02:45.925Z,313.33
2022-10-29T01:05:17.205Z,321.92
2022-10-29T01:07:44.095Z,327.27
2022-10-29T01:10:12.405Z,328.50
2022-10-29T01:12:52.783Z,329.98
2022-10-29T01:15:38.057Z,324.48
2022-10-29T01:18:16.695Z,332.83
2022-10-29T01:21:32.426Z,333.27
2022-10-29T01:24:23.507Z,343.83
2022-10-29T01:27:24.467Z,323.67
2022-10-29T01:30:09.349Z,329.15
2022-10-29T01:32:51.250Z,326.60
2022-10-29T01:35:38.480Z,323.00
2022-10-29T01:38:18.040Z,329.90
2022-10-29T01:41:09.831Z,315.83
2022-10-29T01:44:26.947Z,328.48
2022-10-29T01:47:00.374Z,321.33
2022-10-29T01:49:34.771Z,309.47
2022-10-29T01:52:04.076Z,316.23
2022-10-29T01:54:30.625Z,329.90
2022-10-29T01:56:58.643Z,317.58
2022-10-29T01:59:36.386Z,330.33
2022-10-29T02:02:30.658Z,320.67
2022-10-29T02:05:12.562Z,341.83
2022-10-29T02:07:58.294Z,338.75
2022-10-29T02:10:33.961Z,335.53
2022-10-29T02:13:00.867Z,333.77
2022-10-29T02:15:35.561Z,321.83
2022-10-29T02:18:05.009Z,324.33
2022-10-29T02:20:31.639Z,329.33
2022-10-29T02:22:58.558Z,306.98
2022-10-29T02:25:25.283Z,330.95
2022-10-29T02:27:52.135Z,317.65
2022-10-29T02:30:19.276Z,314.70
2022-10-29T02:32:45.807Z,328.42
2022-10-29T02:35:12.417Z,322.58
2022-10-29T02:37:38.984Z,327.67
2022-10-29T02:40:06.070Z,316.10
2022-10-29T02:42:32.604Z,324.02
2022-10-29T02:44:59.162Z,312.02
2022-10-29T02:47:25.750Z,305.42
2022-10-29T02:49:52.279Z,316.85
2022-10-29T02:52:19.076Z,314.25
2022-10-29T02:54:46.020Z,312.45
2022-10-29T02:57:12.533Z,306.10
2022-10-29T02:59:39.095Z,313.20
2022-10-29T03:02:05.870Z,297.98
2022-10-29T03:04:32.987Z,299.40
2022-10-29T03:07:00.201Z,287.67
2022-10-29T03:09:26.739Z,289.75
2022-10-29T03:11:53.346Z,291.48
2022-10-29T03:14:19.919Z,303.42
2022-10-29T03:16:46.452Z,300.80
2022-10-29T03:19:13.078Z,295.73
2022-10-29T03:21:39.596Z,289.67
2022-10-29T03:24:06.473Z,284.35
2022-10-29T03:26:33.022Z,286.95
2022-10-29T03:28:59.667Z,287.17
2022-10-29T03:31:26.214Z,294.02
2022-10-29T03:33:52.778Z,297.33
2022-10-29T03:36:19.402Z,296.90
2022-10-29T03:38:45.990Z,290.40
2022-10-29T03:41:12.694Z,306.52
2022-10-29T03:43:39.496Z,308.00
2022-10-29T03:46:06.299Z,305.77
2022-10-29T03:48:33.206Z,307.38
2022-10-29T03:51:01.820Z,303.75
2022-10-29T03:53:29.441Z,303.00
2022-10-29T03:55:57.208Z,315.10
2022-10-29T03:58:25.342Z,300.23
2022-10-29T04:01:00.525Z,316.95
2022-10-29T04:03:28.823Z,327.00
2022-10-29T04:05:56.124Z,320.00
2022-10-29T04:08:22.766Z,317.77
2022-10-29T04:10:50.906Z,309.52
2022-10-29T04:13:18.283Z,305.60
2022-10-29T04:15:45.529Z,317.27
2022-10-29T04:18:12.697Z,311.02
2022-10-29T04:20:57.002Z,306.88
2022-10-29T04:29:00.509Z,315.23
2022-10-29T04:31:27.064Z,304.52
2022-10-29T04:33:53.954Z,304.67
2022-10-29T04:36:20.557Z,296.92
2022-10-29T04:38:47.203Z,304.02
2022-10-29T04:41:13.721Z,321.35
2022-10-29T04:43:40.308Z,314.08
2022-10-29T04:46:06.926Z,321.75
2022-10-29T04:48:33.577Z,299.85
2022-10-29T04:51:00.190Z,300.42
2022-10-29T04:53:26.808Z,313.10
2022-10-29T04:55:59.812Z,322.65
2022-10-29T04:58:26.423Z,311.85
2022-10-29T05:00:53.083Z,320.13
2022-10-29T05:03:19.744Z,308.10
2022-10-29T05:05:46.256Z,315.15
2022-10-29T05:08:13.190Z,309.77
2022-10-29T05:10:40.156Z,298.35
2022-10-29T05:13:10.479Z,297.67
2022-10-29T05:15:37.733Z,304.38
2022-10-29T05:18:05.301Z,314.00
2022-10-29T05:20:31.873Z,312.77
2022-10-29T05:23:06.395Z,304.30
2022-10-29T05:25:35.589Z,312.00
2022-10-29T05:28:05.097Z,309.77
2022-10-29T05:30:33.014Z,313.60
2022-10-29T05:32:59.740Z,308.50
2022-10-29T05:35:27.104Z,308.60
2022-10-29T05:37:55.168Z,306.63
2022-10-29T05:40:22.940Z,317.10
2022-10-29T05:42:50.043Z,317.27
2022-10-29T05:45:16.867Z,315.75
2022-10-29T05:47:43.771Z,308.77
2022-10-29T05:50:11.565Z,311.13
2022-10-29T05:52:38.659Z,309.20
2022-10-29T05:55:06.459Z,295.88
2022-10-29T05:57:33.128Z,297.38
2022-10-29T05:59:59.837Z,309.98
2022-10-29T06:02:26.511Z,299.08
2022-10-29T06:04:53.090Z,308.07
2022-10-29T06:07:19.667Z,314.10
2022-10-29T06:09:46.248Z,310.75
2022-10-29T06:12:12.805Z,302.65
2022-10-29T06:14:39.385Z,309.55
2022-10-29T06:17:05.913Z,311.65
2022-10-29T06:19:32.728Z,315.02
2022-10-29T06:22:00.460Z,332.25
2022-10-29T06:24:27.570Z,327.08
2022-10-29T06:26:54.668Z,343.27
2022-10-29T06:29:21.297Z,348.65
2022-10-29T06:31:47.876Z,334.33
2022-10-29T06:34:14.908Z,327.60
2022-10-29T06:36:41.607Z,317.13
2022-10-29T06:39:08.317Z,315.25
2022-10-29T06:41:34.861Z,330.02
2022-10-29T06:44:01.555Z,327.60
2022-10-29T06:46:28.143Z,309.67
2022-10-29T06:48:54.715Z,318.73
2022-10-29T06:53:54.814Z,325.67
2022-10-29T06:56:21.907Z,322.65
2022-10-29T06:58:48.491Z,323.60
2022-10-29T07:01:15.107Z,317.30
2022-10-29T07:03:41.683Z,300.65
2022-10-29T07:06:08.190Z,319.60
2022-10-29T07:08:34.844Z,299.17
2022-10-29T07:11:02.828Z,307.92
2022-10-29T07:13:29.413Z,322.42
2022-10-29T07:15:56.011Z,324.23
2022-10-29T07:18:22.501Z,298.67
2022-10-29T07:20:49.070Z,302.40
2022-10-29T07:23:15.816Z,294.02
2022-10-29T07:25:42.541Z,300.20
2022-10-29T07:28:16.490Z,303.95
2022-10-29T07:30:44.088Z,298.08
2022-10-29T07:33:11.120Z,300.63
2022-10-29T07:35:37.824Z,312.05
2022-10-29T07:38:10.477Z,314.17
2022-10-29T07:40:39.919Z,308.10
2022-10-29T07:43:06.539Z,290.13
2022-10-29T07:45:33.315Z,307.92
2022-10-29T07:48:02.876Z,297.67
2022-10-29T07:50:31.579Z,315.08
2022-10-29T07:53:02.258Z,290.45
2022-10-29T07:58:03.872Z,290.08
2022-10-29T08:00:32.121Z,281.85
2022-10-29T08:02:59.029Z,274.23
2022-10-29T08:05:27.023Z,265.45
2022-10-29T08:07:55.346Z,275.27
2022-10-29T08:10:23.247Z,287.27
2022-10-29T08:12:55.303Z,277.25
2022-10-29T08:15:22.943Z,260.23
2022-10-29T08:17:50.441Z,281.88
2022-10-29T08:20:17.807Z,290.13
2022-10-29T08:22:44.417Z,277.88
2022-10-29T08:25:11.958Z,280.40
2022-10-29T08:27:39.082Z,294.77
2022-10-29T08:30:07.812Z,267.23
2022-10-29T08:32:35.506Z,279.98
2022-10-29T08:35:02.605Z,260.08
2022-10-29T08:37:29.183Z,275.05
2022-10-29T08:39:55.766Z,280.63
2022-10-29T08:42:52.868Z,278.08
2022-10-29T08:45:34.983Z,255.65
2022-10-29T08:48:20.144Z,251.88
2022-10-29T08:51:14.105Z,256.48
2022-10-29T08:53:54.133Z,278.17
2022-10-29T08:56:43.647Z,280.80
2022-10-29T08:59:20.376Z,273.52
2022-10-29T09:01:47.723Z,287.45
2022-10-29T09:04:22.722Z,269.13
2022-10-29T09:07:14.626Z,267.13
2022-10-29T09:10:04.575Z,269.38
2022-10-29T09:12:56.606Z,255.40
2022-10-29T09:15:44.581Z,238.65
2022-10-29T09:18:35.956Z,218.25
2022-10-29T09:21:26.862Z,226.30
2022-10-29T09:24:32.040Z,239.43
2022-10-29T09:27:00.622Z,225.88
2022-10-29T09:29:48.770Z,246.37
2022-10-29T09:32:29.490Z,230.07
2022-10-29T09:35:01.733Z,251.32
2022-10-29T09:37:41.003Z,242.00
2022-10-29T09:40:21.059Z,240.07
2022-10-29T09:42:48.127Z,233.15
2022-10-29T09:45:18.142Z,250.13
2022-10-29T09:48:02.616Z,256.20
2022-10-29T09:50:40.651Z,260.40
2022-10-29T09:53:08.538Z,249.95
2022-10-29T09:55:43.818Z,236.23
2022-10-29T09:58:20.938Z,244.27
2022-10-29T10:00:47.487Z,241.43
2022-10-29T10:03:23.396Z,230.07
2022-10-29T10:06:10.286Z,241.63
2022-10-29T10:09:04.882Z,261.33
2022-10-29T10:11:54.267Z,255.18
2022-10-29T10:14:22.823Z,263.03
2022-10-29T10:16:58.340Z,259.30
2022-10-29T10:19:27.958Z,258.85
2022-10-29T10:22:03.100Z,259.37
2022-10-29T10:24:32.304Z,273.70
2022-10-29T10:26:59.013Z,277.52
2022-10-29T10:29:26.436Z,268.90
2022-10-29T10:31:55.709Z,252.35
2022-10-29T10:34:36.310Z,272.17
2022-10-29T10:37:05.228Z,255.70
2022-10-29T10:39:55.858Z,263.60
2022-10-29T10:42:28.769Z,250.38
2022-10-29T10:45:01.179Z,257.48
2022-10-29T10:47:33.908Z,249.90
2022-10-29T10:50:28.877Z,256.50
2022-10-29T10:52:58.602Z,257.60
2022-10-29T10:55:34.840Z,240.02
2022-10-29T10:58:26.467Z,241.70
2022-10-29T11:01:02.589Z,240.27
2022-10-29T11:03:34.872Z,238.35
2022-10-29T11:06:13.410Z,246.63
2022-10-29T11:08:53.317Z,241.57
2022-10-29T11:11:39.151Z,236.60
2022-10-29T11:14:21.887Z,241.45
2022-10-29T11:16:55.769Z,229.43
2022-10-29T11:19:57.655Z,230.85
2022-10-29T11:22:52.541Z,229.38
2022-10-29T11:25:29.796Z,235.20
2022-10-29T11:28:11.548Z,225.50
2022-10-29T11:30:50.707Z,248.90
2022-10-29T11:33:24.270Z,257.98
2022-10-29T11:36:14.156Z,256.10
2022-10-29T11:38:47.791Z,264.60
2022-10-29T11:41:39.290Z,260.13
2022-10-29T11:44:12.821Z,249.43
2022-10-29T11:47:04.320Z,256.73
2022-10-29T11:49:45.258Z,254.05
2022-10-29T11:52:23.040Z,247.68
2022-10-29T11:55:19.113Z,245.73
2022-10-29T11:57:55.560Z,308.02
2022-10-29T12:00:27.467Z,312.33
2022-10-29T12:03:19.881Z,313.05
2022-10-29T12:05:53.778Z,323.37
2022-10-29T12:08:29.449Z,325.27
2022-10-29T12:10:58.857Z,322.25
2022-10-29T12:13:47.169Z,311.17
2022-10-29T12:16:24.275Z,307.60
2022-10-29T12:18:55.411Z,293.60
2022-10-29T12:21:34.471Z,305.08
2022-10-29T12:24:03.753Z,294.42
2022-10-29T12:26:36.138Z,283.48
2022-10-29T12:29:22.026Z,262.92
2022-10-29T12:32:14.910Z,255.77
2022-10-29T12:34:46.023Z,224.25
2022-10-29T12:37:12.542Z,214.63
2022-10-29T12:39:44.527Z,200.05
2022-10-29T12:42:22.926Z,192.27
2022-10-29T12:45:17.419Z,180.17
2022-10-29T12:48:13.232Z,162.90
2022-10-29T12:50:51.696Z,179.40
2022-10-29T12:53:33.459Z,169.13
2022-10-29T12:56:00.345Z,152.87
2022-10-29T12:58:45.491Z,133.60
2022-10-29T13:02:05.817Z,131.18
2022-10-29T13:04:30.316Z,147.88
2022-10-29T13:07:00.628Z,170.82
2022-10-29T13:09:29.455Z,191.18
2022-10-29T13:11:56.092Z,200.10
2022-10-29T13:14:51.850Z,217.68
2022-10-29T13:17:27.715Z,219.23
2022-10-29T13:19:58.977Z,222.18
2022-10-29T13:25:44.024Z,221.32
2022-10-29T13:28:10.624Z,222.98
2022-10-29T13:30:41.656Z,231.38
2022-10-29T13:33:26.251Z,243.43
2022-10-29T13:35:57.597Z,230.77
2022-10-29T13:38:36.226Z,236.07
2022-10-29T13:41:28.011Z,232.75
2022-10-29T13:44:05.241Z,229.13
2022-10-29T13:46:57.929Z,227.95
2022-10-29T13:49:36.960Z,228.05
2022-10-29T13:52:09.383Z,222.40
2022-10-29T13:54:47.454Z,230.43
2022-10-29T13:57:50.699Z,205.80
2022-10-29T14:00:19.970Z,210.03
2022-10-29T14:03:15.028Z,198.63
2022-10-29T14:05:47.121Z,212.83
2022-10-29T14:08:54.190Z,210.48
2022-10-29T14:11:26.926Z,215.68
2022-10-29T14:13:58.817Z,221.43
2022-10-29T14:16:30.479Z,215.67
2022-10-29T14:18:57.052Z,226.63
2022-10-29T14:21:29.722Z,229.25
2022-10-29T14:23:58.652Z,221.93
2022-10-29T14:26:27.124Z,216.93
2022-10-29T14:28:53.872Z,216.95
2022-10-29T14:31:26.133Z,216.45
2022-10-29T14:34:00.447Z,213.88
2022-10-29T14:36:40.020Z,227.50
2022-10-29T14:39:12.004Z,230.32
2022-10-29T14:41:39.438Z,249.02
2022-10-29T14:44:15.323Z,230.93
2022-10-29T14:46:44.267Z,237.23
2022-10-29T14:49:23.601Z,260.73
2022-10-29T14:51:52.971Z,271.15
2022-10-29T14:54:28.351Z,282.40
2022-10-29T14:56:59.056Z,275.50
2022-10-29T14:59:29.288Z,262.30
2022-10-29T15:02:05.768Z,267.93
2022-10-29T15:04:50.496Z,277.77
2022-10-29T15:07:29.576Z,272.85
2022-10-29T15:10:08.155Z,260.60
2022-10-29T15:12:37.349Z,246.75
2022-10-29T15:15:18.901Z,243.35
2022-10-29T15:18:00.032Z,233.77
2022-10-29T15:20:32.190Z,228.95
2022-10-29T15:22:59.377Z,241.80
2022-10-29T15:25:35.738Z,232.05
2022-10-29T15:28:03.251Z,245.95
2022-10-29T15:30:37.795Z,244.18
2022-10-29T15:33:18.008Z,228.87
2022-10-29T15:35:53.368Z,258.73
2022-10-29T15:38:35.078Z,253.43
2022-10-29T15:41:19.571Z,236.90
2022-10-29T15:43:55.013Z,242.20
2022-10-29T15:46:36.008Z,233.77
2022-10-29T15:49:02.735Z,221.82
2022-10-29T15:51:31.018Z,213.93
2022-10-29T15:54:01.971Z,211.88
2022-10-29T15:56:30.909Z,212.38
2022-10-29T15:58:59.545Z,213.77
2022-10-29T16:01:26.185Z,223.45
2022-10-29T16:03:54.812Z,212.50
2022-10-29T16:06:21.478Z,235.95
2022-10-29T16:08:51.018Z,223.02
2022-10-29T16:11:21.191Z,224.75
2022-10-29T16:13:54.605Z,224.10
2022-10-29T16:16:23.946Z,228.57
2022-10-29T16:18:51.443Z,243.60
2022-10-29T16:21:25.877Z,236.98
2022-10-29T16:23:52.664Z,243.15
2022-10-29T16:26:23.822Z,233.07
2022-10-29T16:28:52.747Z,233.25
2022-10-29T16:31:23.026Z,240.52
2022-10-29T16:33:51.550Z,242.05
2022-10-29T16:36:18.369Z,244.02
2022-10-29T16:38:44.912Z,256.88
2022-10-29T16:41:16.023Z,240.47
2022-10-29T16:43:43.569Z,228.48
2022-10-29T16:46:11.020Z,249.15
2022-10-29T16:48:37.810Z,260.98
2022-10-29T16:51:04.975Z,234.30
2022-10-29T16:53:31.531Z,256.55
2022-10-29T16:55:58.156Z,248.23
2022-10-29T16:58:24.850Z,257.03
2022-10-29T17:00:51.713Z,276.00
2022-10-29T17:03:18.481Z,258.48
2022-10-29T17:05:46.480Z,255.80
2022-10-29T17:08:13.631Z,261.60
2022-10-29T17:10:40.210Z,265.05
2022-10-29T17:13:11.745Z,267.95
2022-10-29T17:15:41.520Z,255.95
2022-10-29T17:18:08.168Z,264.05
2022-10-29T17:20:34.759Z,263.20
2022-10-29T17:23:01.341Z,254.83
2022-10-29T17:25:27.939Z,279.80
2022-10-29T17:27:54.911Z,269.55
2022-10-29T17:30:21.660Z,270.77
2022-10-29T17:32:48.202Z,272.33
2022-10-29T17:35:14.863Z,284.52
2022-10-29T17:37:41.377Z,266.85
2022-10-29T17:40:08.606Z,261.55
2022-10-29T17:42:35.371Z,257.08
2022-10-29T17:45:01.937Z,257.40
2022-10-29T17:47:29.449Z,247.48
2022-10-29T17:49:56.191Z,264.45
2022-10-29T17:52:22.676Z,254.37
2022-10-29T17:54:49.281Z,251.55
2022-10-29T17:57:15.799Z,252.80
2022-10-29T17:59:42.339Z,257.00
2022-10-29T18:02:11.151Z,256.77
2022-10-29T18:04:38.119Z,247.60
2022-10-29T18:07:04.787Z,246.98
2022-10-29T18:09:31.366Z,256.13
2022-10-29T18:11:57.893Z,243.65
2022-10-29T18:14:24.684Z,246.73
2022-10-29T18:16:51.261Z,254.10
2022-10-29T18:19:17.841Z,266.02
2022-10-29T18:21:44.459Z,260.83
2022-10-29T18:24:11.100Z,259.20
2022-10-29T18:26:37.719Z,257.42
2022-10-29T18:29:10.966Z,259.05
2022-10-29T18:31:38.001Z,254.27
2022-10-29T18:34:07.488Z,256.05
2022-10-29T18:36:35.655Z,255.40
2022-10-29T18:39:04.103Z,271.40
2022-10-29T18:41:30.884Z,255.02
2022-10-29T18:43:58.615Z,259.83
2022-10-29T18:46:25.553Z,257.80
2022-10-29T18:48:52.427Z,265.48
2022-10-29T18:51:25.052Z,266.13
2022-10-29T18:53:53.362Z,254.32
2022-10-29T18:56:21.858Z,251.05
2022-10-29T18:58:49.001Z,257.33
2022-10-29T19:01:22.703Z,256.42
2022-10-29T19:03:51.535Z,272.20
2022-10-29T19:06:19.343Z,253.40
2022-10-29T19:08:46.456Z,258.25
2022-10-29T19:11:15.582Z,256.70
2022-10-29T19:13:42.386Z,253.93
2022-10-29T19:16:11.424Z,253.75
2022-10-29T19:18:39.259Z,256.30
2022-10-29T19:21:11.639Z,254.30
2022-10-29T19:23:38.581Z,257.02
2022-10-29T19:26:07.321Z,244.85
2022-10-29T19:28:34.692Z,236.27
2022-10-29T19:31:06.404Z,239.98
2022-10-29T19:33:33.155Z,241.63
2022-10-29T19:36:00.220Z,245.40
2022-10-29T19:38:27.439Z,257.23
2022-10-29T19:40:56.887Z,248.63
2022-10-29T19:43:24.398Z,241.73
2022-10-29T19:45:51.840Z,262.65
2022-10-29T19:48:19.019Z,255.60
2022-10-29T19:50:46.783Z,253.73
2022-10-29T19:53:13.553Z,258.85
2022-10-29T19:55:40.685Z,260.77
2022-10-29T19:58:07.711Z,263.52
2022-10-29T20:00:34.245Z,276.50
2022-10-29T20:03:00.951Z,265.52
2022-10-29T20:05:27.750Z,271.10
2022-10-29T20:07:55.930Z,268.45
2022-10-29T20:10:23.958Z,268.40
2022-10-29T20:12:50.608Z,259.67
2022-10-29T20:15:17.293Z,264.10
2022-10-29T20:17:44.001Z,261.10
2022-10-29T20:20:15.723Z,257.70
2022-10-29T20:22:43.699Z,261.27
2022-10-29T20:25:10.347Z,251.68
2022-10-29T20:27:36.914Z,261.98
2022-10-29T20:30:05.261Z,260.15
2022-10-29T20:32:31.902Z,256.05
2022-10-29T20:34:58.484Z,255.63
2022-10-29T20:37:25.164Z,262.65
2022-10-29T20:39:51.711Z,276.65
2022-10-29T20:42:18.429Z,270.55
2022-10-29T20:44:45.931Z,277.50
2022-10-29T20:47:12.573Z,287.10
2022-10-29T20:49:39.132Z,295.45
2022-10-29T20:52:07.182Z,290.10
2022-10-29T20:54:33.928Z,286.60
2022-10-29T20:57:00.487Z,283.02
2022-10-29T20:59:27.020Z,296.85
2022-10-29T21:01:53.769Z,279.13
2022-10-29T21:04:20.435Z,284.55
2022-10-29T21:06:47.068Z,285.15
2022-10-29T21:09:13.575Z,302.73
2022-10-29T21:11:41.383Z,289.97
2022-10-29T21:14:07.861Z,280.70
2022-10-29T21:16:34.458Z,282.83
2022-10-29T21:19:01.983Z,286.17
2022-10-29T21:21:29.445Z,275.95
2022-10-29T21:23:59.193Z,278.70
2022-10-29T21:26:27.264Z,279.13
2022-10-29T21:28:54.401Z,287.60
2022-10-29T21:31:22.470Z,295.10
2022-10-29T21:33:50.925Z,300.55
2022-10-29T21:36:17.788Z,297.17
2022-10-29T21:38:44.428Z,281.57
2022-10-29T21:41:11.075Z,284.98
2022-10-29T21:43:38.674Z,285.02
2022-10-29T21:46:05.780Z,291.95
2022-10-29T21:48:32.414Z,300.30
2022-10-29T21:51:04.591Z,300.90
2022-10-29T21:53:31.741Z,307.02
2022-10-29T21:56:02.254Z,299.55
2022-10-29T21:58:29.259Z,295.00
2022-10-29T22:01:03.974Z,289.45
2022-10-29T22:03:34.963Z,285.88
2022-10-29T22:06:12.490Z,298.55
2022-10-29T22:08:39.643Z,309.83
2022-10-29T22:11:06.880Z,292.02
2022-10-29T22:13:34.631Z,292.95
2022-10-29T22:16:04.015Z,296.63
2022-10-29T22:18:31.624Z,303.20
2022-10-29T22:21:15.463Z,299.58
2022-10-29T22:23:50.043Z,305.50
2022-10-29T22:26:19.311Z,305.23
2022-10-29T22:28:49.931Z,307.90
2022-10-29T22:31:18.592Z,301.13
2022-10-29T22:33:45.660Z,301.33
2022-10-29T22:36:14.988Z,301.13
2022-10-29T22:38:41.893Z,300.90
2022-10-29T22:41:11.244Z,296.95
2022-10-29T22:43:38.233Z,302.67
2022-10-29T22:46:06.077Z,301.67
2022-10-29T22:48:33.067Z,307.48
2022-10-29T22:51:01.912Z,304.42
2022-10-29T22:53:28.616Z,305.13
2022-10-29T22:55:55.262Z,319.45
2022-10-29T22:58:21.922Z,312.67
2022-10-29T23:00:48.559Z,302.60
2022-10-29T23:03:15.129Z,304.98
2022-10-29T23:05:41.709Z,305.10
2022-10-29T23:08:08.227Z,308.60
2022-10-29T23:10:35.817Z,306.30
2022-10-29T23:13:02.452Z,297.13
2022-10-29T23:15:28.996Z,300.50
2022-10-29T23:17:55.787Z,293.17
2022-10-29T23:20:22.603Z,293.20
2022-10-29T23:22:49.082Z,289.87
2022-10-29T23:25:15.680Z,286.67
2022-10-29T23:27:42.219Z,291.63
2022-10-29T23:30:09.523Z,294.93
2022-10-29T23:32:36.102Z,288.17
2022-10-29T23:35:02.701Z,291.48
2022-10-29T23:37:29.322Z,292.57
2022-10-29T23:39:55.828Z,297.60
2022-10-29T23:42:22.430Z,286.10
2022-10-29T23:44:48.942Z,290.52
2022-10-29T23:47:15.500Z,300.25
2022-10-29T23:49:42.051Z,302.33
2022-10-29T23:52:08.634Z,301.48
2022-10-29T23:54:35.173Z,295.92
2022-10-29T23:57:01.819Z,302.20
2022-10-29T23:59:28.358Z,310.27
